Weather at Wilcannia Airport

Public forecast

Using degrees Celsius for public forecast. Weather courtesy of forecast.io.

Closest aviation weather report (METAR) to Wilcannia Airport

Closest report is Broken Hill Airport, 101.2 nm (187.5 km) WSW. Retrieved 2021/06/13 10:00 UTC (17 minutes ago):

YBHI 131000Z AUTO 05005KT 9999 // NCD 12/03 Q1015

Closest aviation forecast (TAF) to Wilcannia Airport

Closest forecast is Dubbo City Regional Airport, 268.3 nm (496.9 km) E. Retrieved 2021/06/13 06:38 UTC (4 hours ago):

TAF YSDU 130507Z 1306/1400 23007KT 9999 SCT045 FM131000 11003KT 9999 BKN040